createdAt,value
2022-12-28T00:01:54.764Z,3.00
2022-12-28T00:04:22.945Z,3.00
2022-12-28T00:06:52.511Z,3.00
2022-12-28T00:09:20.617Z,3.00
2022-12-28T00:11:48.753Z,2.90
2022-12-28T00:14:16.938Z,3.00
2022-12-28T00:16:46.580Z,2.90
2022-12-28T00:19:16.796Z,2.90
2022-12-28T00:21:46.347Z,2.90
2022-12-28T00:24:19.555Z,2.90
2022-12-28T00:26:47.625Z,2.90
2022-12-28T00:29:15.912Z,2.90
2022-12-28T00:31:45.685Z,2.90
2022-12-28T00:34:15.829Z,2.90
2022-12-28T00:37:10.534Z,2.90
2022-12-28T00:39:32.111Z,2.90
2022-12-28T00:42:00.216Z,2.90
2022-12-28T00:44:28.495Z,2.90
2022-12-28T00:46:56.546Z,3.00
2022-12-28T00:49:26.058Z,2.90
2022-12-28T00:51:54.147Z,3.00
2022-12-28T00:54:22.198Z,3.00
2022-12-28T00:56:50.243Z,3.00
2022-12-28T00:59:18.506Z,3.10
2022-12-28T01:01:46.647Z,3.10
2022-12-28T01:04:15.378Z,3.10
2022-12-28T01:06:44.835Z,3.00
2022-12-28T01:09:12.941Z,3.10
2022-12-28T01:11:41.102Z,3.10
2022-12-28T01:14:09.313Z,3.30
2022-12-28T01:16:38.371Z,3.30
2022-12-28T01:19:08.279Z,3.40
2022-12-28T01:21:37.422Z,3.30
2022-12-28T01:24:08.744Z,3.40
2022-12-28T01:26:37.356Z,3.40
2022-12-28T01:29:05.622Z,3.30
2022-12-28T01:31:34.100Z,3.30
2022-12-28T01:34:02.673Z,3.20
2022-12-28T01:36:32.609Z,3.30
2022-12-28T01:39:02.836Z,3.40
2022-12-28T01:41:33.794Z,3.20
2022-12-28T01:44:42.049Z,3.30
2022-12-28T01:47:14.722Z,3.30
2022-12-28T01:49:47.469Z,3.30
2022-12-28T01:52:21.208Z,3.30
2022-12-28T01:54:52.133Z,3.30
2022-12-28T01:57:26.860Z,3.30
2022-12-28T02:00:01.095Z,3.20
2022-12-28T02:02:30.740Z,3.20
2022-12-28T02:05:00.113Z,3.10
2022-12-28T02:07:37.597Z,3.10
2022-12-28T02:10:43.280Z,3.00
2022-12-28T02:12:58.024Z,3.00
2022-12-28T02:15:26.182Z,3.10
2022-12-28T02:17:54.210Z,3.10
2022-12-28T02:20:24.846Z,3.10
2022-12-28T02:23:12.903Z,3.10
2022-12-28T02:26:09.895Z,3.10
2022-12-28T02:29:27.783Z,3.20
2022-12-28T02:32:04.002Z,3.10
2022-12-28T02:34:38.223Z,3.20
2022-12-28T02:37:13.577Z,3.20
2022-12-28T02:39:45.458Z,3.30
2022-12-28T02:42:14.943Z,3.40
2022-12-28T02:45:01.728Z,3.40
2022-12-28T02:47:47.095Z,3.40
2022-12-28T02:50:17.186Z,3.40
2022-12-28T02:53:09.203Z,3.30
2022-12-28T02:56:09.549Z,3.30
2022-12-28T02:59:05.258Z,3.40
2022-12-28T03:01:56.392Z,3.40
2022-12-28T03:04:30.471Z,3.40
2022-12-28T03:07:25.094Z,3.40
2022-12-28T03:09:59.443Z,3.50
2022-12-28T03:12:33.444Z,3.40
2022-12-28T03:15:08.134Z,3.50
2022-12-28T03:17:58.893Z,3.60
2022-12-28T03:20:48.569Z,3.60
2022-12-28T03:23:37.196Z,3.60
2022-12-28T03:26:25.938Z,3.60
2022-12-28T03:29:13.497Z,3.70
2022-12-28T03:31:42.335Z,3.80
2022-12-28T03:34:12.073Z,3.80
2022-12-28T03:36:49.176Z,3.80
2022-12-28T03:39:26.022Z,3.70
2022-12-28T03:42:15.472Z,3.60
2022-12-28T03:44:49.007Z,3.60
2022-12-28T03:47:18.068Z,3.70
2022-12-28T03:49:47.660Z,3.70
2022-12-28T03:52:15.756Z,3.60
2022-12-28T03:54:44.321Z,3.70
2022-12-28T03:57:12.329Z,3.70
2022-12-28T03:59:40.324Z,3.70
2022-12-28T04:02:08.491Z,3.80
2022-12-28T04:04:36.611Z,3.80
2022-12-28T04:07:05.995Z,3.80
2022-12-28T04:09:34.209Z,3.80
2022-12-28T04:12:02.223Z,3.90
2022-12-28T04:14:30.229Z,3.80
2022-12-28T04:16:58.251Z,3.80
2022-12-28T04:19:26.242Z,3.80
2022-12-28T04:21:54.257Z,3.90
2022-12-28T04:24:23.644Z,3.90
2022-12-28T04:26:51.685Z,3.90
2022-12-28T04:29:19.688Z,3.90
2022-12-28T04:31:48.078Z,3.90
2022-12-28T04:34:16.419Z,4.00
2022-12-28T04:36:44.462Z,3.90
2022-12-28T04:39:12.556Z,3.90
2022-12-28T04:41:41.990Z,3.90
2022-12-28T04:44:10.104Z,4.00
2022-12-28T04:46:38.139Z,4.00
2022-12-28T04:49:06.380Z,4.00
2022-12-28T04:51:35.322Z,4.10
2022-12-28T04:54:03.383Z,4.10
2022-12-28T04:56:31.669Z,4.10
2022-12-28T04:59:01.890Z,4.10
2022-12-28T05:01:30.021Z,4.20
2022-12-28T05:03:59.848Z,4.20
2022-12-28T05:06:29.411Z,4.30
2022-12-28T05:08:58.257Z,4.30
2022-12-28T05:11:28.739Z,4.30
2022-12-28T05:13:57.100Z,4.30
2022-12-28T05:16:28.124Z,4.30
2022-12-28T05:18:56.691Z,4.40
2022-12-28T05:21:26.000Z,4.40
2022-12-28T05:23:54.463Z,4.40
2022-12-28T05:26:24.823Z,4.40
2022-12-28T05:28:53.172Z,4.40
2022-12-28T05:31:23.578Z,4.40
2022-12-28T05:33:53.537Z,4.40
2022-12-28T05:36:23.916Z,4.40
2022-12-28T05:38:52.369Z,4.40
2022-12-28T05:41:22.419Z,4.50
2022-12-28T05:43:50.834Z,4.40
2022-12-28T05:46:20.731Z,4.40
2022-12-28T05:48:49.300Z,4.40
2022-12-28T05:51:20.689Z,4.40
2022-12-28T05:53:49.121Z,4.40
2022-12-28T05:56:18.967Z,4.50
2022-12-28T05:58:49.014Z,4.50
2022-12-28T06:01:19.074Z,4.50
2022-12-28T06:03:48.229Z,4.60
2022-12-28T06:06:18.800Z,4.60
2022-12-28T06:08:48.515Z,4.60
2022-12-28T06:11:18.570Z,4.60
2022-12-28T06:13:46.972Z,4.60
2022-12-28T06:16:17.164Z,4.60
2022-12-28T06:18:45.758Z,4.60
2022-12-28T06:21:15.163Z,4.60
2022-12-28T06:23:45.301Z,4.70
2022-12-28T06:26:15.275Z,4.60
2022-12-28T06:28:44.024Z,4.60
2022-12-28T06:31:13.975Z,4.70
2022-12-28T06:33:42.695Z,4.70
2022-12-28T06:36:19.577Z,4.70
2022-12-28T06:38:49.889Z,4.80
2022-12-28T06:41:19.489Z,4.80
2022-12-28T06:43:48.125Z,4.80
2022-12-28T06:46:17.459Z,4.80
2022-12-28T06:48:46.008Z,4.80
2022-12-28T06:51:15.963Z,4.80
2022-12-28T06:53:44.493Z,4.80
2022-12-28T06:56:15.842Z,4.80
2022-12-28T06:58:44.939Z,4.80
2022-12-28T07:01:15.555Z,4.80
2022-12-28T07:03:43.721Z,4.80
2022-12-28T07:06:12.809Z,4.80
2022-12-28T07:08:41.685Z,4.80
2022-12-28T07:11:11.450Z,4.90
2022-12-28T07:13:40.961Z,4.90
2022-12-28T07:16:12.527Z,4.90
2022-12-28T07:18:41.385Z,4.90
2022-12-28T07:21:12.311Z,5.00
2022-12-28T07:23:40.650Z,5.00
2022-12-28T07:26:10.829Z,5.00
2022-12-28T07:28:40.925Z,5.00
2022-12-28T07:31:10.064Z,5.10
2022-12-28T07:33:38.890Z,5.10
2022-12-28T07:36:09.372Z,5.10
2022-12-28T07:38:37.399Z,5.10
2022-12-28T07:41:07.422Z,5.10
2022-12-28T07:43:37.144Z,5.10
2022-12-28T07:46:09.125Z,5.20
2022-12-28T07:48:38.192Z,5.20
2022-12-28T07:51:11.580Z,5.20
2022-12-28T07:53:40.413Z,5.20
2022-12-28T07:56:09.537Z,5.20
2022-12-28T07:58:37.595Z,5.20
2022-12-28T08:01:08.547Z,5.30
2022-12-28T08:03:36.937Z,5.30
2022-12-28T08:06:07.317Z,5.30
2022-12-28T08:08:36.554Z,5.30
2022-12-28T08:11:05.688Z,5.30
2022-12-28T08:13:35.692Z,5.30
2022-12-28T08:16:04.224Z,5.40
2022-12-28T08:18:34.073Z,5.40
2022-12-28T08:21:03.106Z,5.50
2022-12-28T08:23:31.227Z,5.50
2022-12-28T08:26:05.580Z,5.50
2022-12-28T08:28:33.596Z,5.50
2022-12-28T08:31:07.372Z,5.50
2022-12-28T08:33:37.006Z,5.50
2022-12-28T08:36:05.864Z,5.60
2022-12-28T08:38:35.099Z,5.60
2022-12-28T08:41:05.369Z,5.60
2022-12-28T08:43:34.161Z,5.70
2022-12-28T08:46:03.787Z,5.70
2022-12-28T08:48:31.998Z,5.70
2022-12-28T08:51:04.807Z,5.70
2022-12-28T08:53:33.558Z,5.70
2022-12-28T08:56:06.897Z,5.70
2022-12-28T08:58:35.136Z,5.80
2022-12-28T09:01:08.757Z,5.80
2022-12-28T09:03:38.093Z,5.80
2022-12-28T09:06:09.861Z,5.80
2022-12-28T09:08:38.365Z,5.80
2022-12-28T09:11:08.459Z,5.80
2022-12-28T09:13:37.245Z,5.80
2022-12-28T09:16:07.917Z,5.80
2022-12-28T09:18:37.116Z,5.90
2022-12-28T09:21:13.245Z,5.90
2022-12-28T09:23:41.800Z,5.90
2022-12-28T09:26:12.584Z,5.90
2022-12-28T09:28:41.315Z,5.90
2022-12-28T09:31:10.106Z,6.00
2022-12-28T09:36:46.194Z,6.10
2022-12-28T09:39:17.620Z,6.00
2022-12-28T09:41:50.155Z,6.20
2022-12-28T09:44:46.889Z,6.20
2022-12-28T09:47:24.250Z,6.20
2022-12-28T09:50:04.607Z,6.20
2022-12-28T09:52:37.486Z,6.30
2022-12-28T09:55:11.677Z,6.30
2022-12-28T09:57:44.695Z,6.30
2022-12-28T10:00:19.381Z,6.40
2022-12-28T10:02:53.068Z,6.40
2022-12-28T10:05:22.144Z,6.30
2022-12-28T10:07:52.897Z,6.40
2022-12-28T10:10:23.188Z,6.40
2022-12-28T10:12:52.118Z,6.50
2022-12-28T10:15:20.959Z,6.40
2022-12-28T10:17:49.042Z,6.40
2022-12-28T10:20:20.792Z,6.50
2022-12-28T10:22:55.765Z,6.50
2022-12-28T10:25:26.053Z,6.60
2022-12-28T10:27:54.815Z,6.60
2022-12-28T10:30:27.199Z,6.60
2022-12-28T10:33:02.690Z,6.70
2022-12-28T10:35:36.368Z,6.70
2022-12-28T10:38:19.427Z,6.80
2022-12-28T10:40:59.158Z,6.70
2022-12-28T10:43:30.382Z,6.70
2022-12-28T10:46:00.237Z,6.70
2022-12-28T10:48:31.758Z,6.80
2022-12-28T10:51:03.109Z,6.80
2022-12-28T10:53:34.735Z,6.80
2022-12-28T10:56:05.914Z,6.80
2022-12-28T10:58:35.275Z,6.80
2022-12-28T11:01:07.668Z,6.80
2022-12-28T11:03:38.575Z,6.80
2022-12-28T11:06:15.091Z,6.80
2022-12-28T11:08:46.966Z,6.80
2022-12-28T11:11:19.891Z,6.80
2022-12-28T11:13:52.609Z,6.80
2022-12-28T11:16:21.255Z,6.80
2022-12-28T11:18:49.696Z,6.80
2022-12-28T11:21:21.048Z,6.90
2022-12-28T11:23:52.662Z,6.90
2022-12-28T11:26:21.930Z,7.00
2022-12-28T11:28:52.878Z,6.90
2022-12-28T11:31:26.897Z,7.00
2022-12-28T11:33:58.454Z,7.10
2022-12-28T11:36:28.392Z,7.00
2022-12-28T11:38:58.553Z,7.00
2022-12-28T11:41:56.266Z,7.00
2022-12-28T11:44:54.023Z,7.00
2022-12-28T11:47:32.987Z,7.10
2022-12-28T11:50:39.287Z,7.00
2022-12-28T11:53:23.367Z,7.00
2022-12-28T11:56:05.003Z,7.10
2022-12-28T11:58:48.480Z,7.10
2022-12-28T12:01:42.713Z,7.00
2022-12-28T12:04:31.267Z,7.10
2022-12-28T12:07:32.084Z,7.10
2022-12-28T12:10:37.176Z,7.10
2022-12-28T12:13:42.535Z,7.20
2022-12-28T12:16:21.982Z,7.20
2022-12-28T12:18:52.964Z,7.20
2022-12-28T12:21:34.338Z,7.20
2022-12-28T12:24:18.525Z,7.20
2022-12-28T12:26:51.351Z,7.20
2022-12-28T12:29:24.910Z,7.20
2022-12-28T12:32:00.586Z,7.30
2022-12-28T12:34:41.357Z,7.20
2022-12-28T12:37:37.981Z,7.20
2022-12-28T12:40:41.902Z,7.20
2022-12-28T12:43:38.959Z,7.20
2022-12-28T12:46:27.167Z,7.30
2022-12-28T12:49:30.442Z,7.30
2022-12-28T12:52:06.327Z,7.30
2022-12-28T12:54:45.243Z,7.30
2022-12-28T12:57:18.424Z,7.40
2022-12-28T13:00:06.210Z,7.30
2022-12-28T13:02:58.314Z,7.40
2022-12-28T13:05:29.438Z,7.40
2022-12-28T13:07:59.208Z,7.40
2022-12-28T13:10:32.704Z,7.30
2022-12-28T13:13:03.268Z,7.40
2022-12-28T13:15:32.316Z,7.40
2022-12-28T13:18:34.457Z,7.40
2022-12-28T13:20:56.878Z,7.40
2022-12-28T13:23:25.681Z,7.50
2022-12-28T13:25:56.137Z,7.50
2022-12-28T13:28:28.571Z,7.50
2022-12-28T13:31:07.562Z,7.40
2022-12-28T13:33:37.028Z,7.40
2022-12-28T13:36:14.922Z,7.30
2022-12-28T13:38:42.972Z,7.30
2022-12-28T13:41:22.309Z,7.30
2022-12-28T13:44:21.538Z,7.30
2022-12-28T13:46:54.908Z,7.30
2022-12-28T13:49:26.489Z,7.20
2022-12-28T13:51:54.725Z,7.30
2022-12-28T13:54:25.128Z,7.30
2022-12-28T13:57:08.625Z,7.30
2022-12-28T13:59:44.826Z,7.30
2022-12-28T14:02:18.163Z,7.30
2022-12-28T14:04:52.672Z,7.30
2022-12-28T14:07:25.337Z,7.30
2022-12-28T14:09:54.739Z,7.30
2022-12-28T14:12:23.398Z,7.30
2022-12-28T14:14:52.681Z,7.30
2022-12-28T14:17:21.803Z,7.30
2022-12-28T14:19:52.820Z,7.30
2022-12-28T14:22:39.846Z,7.30
2022-12-28T14:25:09.886Z,7.30
2022-12-28T14:27:41.071Z,7.30
2022-12-28T14:30:21.930Z,7.30
2022-12-28T14:32:50.279Z,7.40
2022-12-28T14:35:23.474Z,7.50
2022-12-28T14:37:55.224Z,7.50
2022-12-28T14:40:29.235Z,7.40
2022-12-28T14:42:58.720Z,7.50
2022-12-28T14:46:06.943Z,7.40
2022-12-28T14:48:37.791Z,7.60
2022-12-28T14:51:25.907Z,7.60
2022-12-28T14:54:20.744Z,7.60
2022-12-28T14:56:53.272Z,7.60
2022-12-28T14:59:26.174Z,7.60
2022-12-28T15:01:54.465Z,7.60
2022-12-28T15:04:36.169Z,7.60
2022-12-28T15:07:06.975Z,7.70
2022-12-28T15:09:35.114Z,7.80
2022-12-28T15:12:13.768Z,7.80
2022-12-28T15:14:42.320Z,7.80
2022-12-28T15:17:11.516Z,7.80
2022-12-28T15:19:40.115Z,7.70
2022-12-28T15:22:09.566Z,7.70
2022-12-28T15:24:38.807Z,7.70
2022-12-28T15:27:06.942Z,7.90
2022-12-28T15:32:22.981Z,7.80
2022-12-28T15:34:51.017Z,7.90
2022-12-28T15:37:20.415Z,7.80
2022-12-28T15:39:49.543Z,7.80
2022-12-28T15:42:17.645Z,7.70
2022-12-28T15:44:46.306Z,7.60
2022-12-28T15:47:14.395Z,7.60
2022-12-28T15:49:42.425Z,7.60
2022-12-28T15:52:10.478Z,7.60
2022-12-28T15:54:45.313Z,7.70
2022-12-28T15:57:15.831Z,7.70
2022-12-28T15:59:43.953Z,7.60
2022-12-28T16:02:12.570Z,7.60
2022-12-28T16:04:41.061Z,7.70
2022-12-28T16:07:09.073Z,7.70
2022-12-28T16:09:37.098Z,7.70
2022-12-28T16:12:06.899Z,7.70
2022-12-28T16:14:34.933Z,7.60
2022-12-28T16:17:02.929Z,7.70
2022-12-28T16:19:30.977Z,7.70
2022-12-28T16:21:58.968Z,7.70
2022-12-28T16:24:29.039Z,7.60
2022-12-28T16:26:57.226Z,7.70
2022-12-28T16:29:26.648Z,7.70
2022-12-28T16:31:55.389Z,7.60
2022-12-28T16:34:23.825Z,7.60
2022-12-28T16:36:56.885Z,7.60
2022-12-28T16:39:25.241Z,7.50
2022-12-28T16:41:54.883Z,7.60
2022-12-28T16:44:26.942Z,7.50
2022-12-28T16:46:58.275Z,7.50
2022-12-28T16:49:27.123Z,7.50
2022-12-28T16:51:55.149Z,7.50
2022-12-28T16:54:24.929Z,7.50
2022-12-28T16:56:53.957Z,7.50
2022-12-28T16:59:24.554Z,7.50
2022-12-28T17:01:54.911Z,7.50
2022-12-28T17:04:23.854Z,7.50
2022-12-28T17:06:52.826Z,7.50
2022-12-28T17:09:21.860Z,7.40
2022-12-28T17:11:51.019Z,7.40
2022-12-28T17:17:08.837Z,7.40
2022-12-28T17:19:36.975Z,7.40
2022-12-28T17:22:05.569Z,7.30
2022-12-28T17:24:33.708Z,7.30
2022-12-28T17:27:07.228Z,7.30
2022-12-28T17:29:35.952Z,7.30
2022-12-28T17:32:04.350Z,7.30
2022-12-28T17:34:34.106Z,7.40
2022-12-28T17:37:02.124Z,7.40
2022-12-28T17:39:34.576Z,7.30
2022-12-28T17:42:06.320Z,7.30
2022-12-28T17:44:34.479Z,7.30
2022-12-28T17:47:02.532Z,7.30
2022-12-28T17:49:30.580Z,7.30
2022-12-28T17:51:59.995Z,7.20
2022-12-28T17:54:28.030Z,7.20
2022-12-28T17:56:56.137Z,7.10
2022-12-28T17:59:24.205Z,7.20
2022-12-28T18:01:53.656Z,7.30
2022-12-28T18:04:21.857Z,7.30
2022-12-28T18:06:49.891Z,7.30
2022-12-28T18:09:25.552Z,7.40
2022-12-28T18:11:55.601Z,7.30
2022-12-28T18:14:23.668Z,7.20
2022-12-28T18:16:51.738Z,7.10
2022-12-28T18:19:19.817Z,7.10
2022-12-28T18:21:48.991Z,7.20
2022-12-28T18:24:20.848Z,7.10
2022-12-28T18:26:50.561Z,7.10
2022-12-28T18:29:18.606Z,7.20
2022-12-28T18:31:46.754Z,7.10
2022-12-28T18:34:15.540Z,7.10
2022-12-28T18:36:43.602Z,7.00
2022-12-28T18:39:11.708Z,7.10
2022-12-28T18:41:39.866Z,7.20
2022-12-28T18:44:10.398Z,7.20
2022-12-28T18:46:38.509Z,7.10
2022-12-28T18:49:06.807Z,7.10
2022-12-28T18:51:34.841Z,7.00
2022-12-28T18:54:02.863Z,6.90
2022-12-28T18:56:30.977Z,7.00
2022-12-28T18:58:59.072Z,7.00
2022-12-28T19:04:18.920Z,7.00
2022-12-28T19:06:47.852Z,7.00
2022-12-28T19:09:16.033Z,7.10
2022-12-28T19:11:45.200Z,7.00
2022-12-28T19:14:15.654Z,7.10
2022-12-28T19:16:45.254Z,7.10
2022-12-28T19:19:13.712Z,7.10
2022-12-28T19:21:43.344Z,7.10
2022-12-28T19:24:14.509Z,7.10
2022-12-28T19:26:42.567Z,7.10
2022-12-28T19:29:12.172Z,7.10
2022-12-28T19:31:40.353Z,7.10
2022-12-28T19:34:09.965Z,7.10
2022-12-28T19:36:38.062Z,7.20
2022-12-28T19:39:06.244Z,7.20
2022-12-28T19:41:35.662Z,7.10
2022-12-28T19:44:03.739Z,7.20
2022-12-28T19:46:32.399Z,7.10
2022-12-28T19:49:01.438Z,7.10
2022-12-28T19:51:32.590Z,7.20
2022-12-28T19:54:02.729Z,7.20
2022-12-28T19:56:31.133Z,7.20
2022-12-28T19:59:06.191Z,7.20
2022-12-28T20:01:36.259Z,7.20
2022-12-28T20:04:12.313Z,7.10
2022-12-28T20:06:44.339Z,7.20
2022-12-28T20:09:13.224Z,7.20
2022-12-28T20:11:41.768Z,7.20
2022-12-28T20:14:12.581Z,7.20
2022-12-28T20:16:41.922Z,7.20
2022-12-28T20:19:11.912Z,7.20
2022-12-28T20:21:42.557Z,7.30
2022-12-28T20:24:12.650Z,7.30
2022-12-28T20:26:40.760Z,7.30
2022-12-28T20:29:09.071Z,7.40
2022-12-28T20:31:37.167Z,7.40
2022-12-28T20:34:05.741Z,7.50
2022-12-28T20:36:34.350Z,7.50
2022-12-28T20:39:04.538Z,7.50
2022-12-28T20:41:56.813Z,7.40
2022-12-28T20:44:27.155Z,7.40
2022-12-28T20:46:56.019Z,7.40
2022-12-28T20:49:24.461Z,7.40
2022-12-28T20:51:53.075Z,7.40
2022-12-28T20:54:22.988Z,7.40
2022-12-28T20:56:55.261Z,7.40
2022-12-28T20:59:25.657Z,7.40
2022-12-28T21:01:54.317Z,7.50
2022-12-28T21:04:24.491Z,7.50
2022-12-28T21:06:52.977Z,7.40
2022-12-28T21:09:23.026Z,7.50
2022-12-28T21:11:51.247Z,7.50
2022-12-28T21:14:19.479Z,7.60
2022-12-28T21:16:47.564Z,7.60
2022-12-28T21:19:15.641Z,7.50
2022-12-28T21:21:43.681Z,7.50
2022-12-28T21:24:11.775Z,7.50
2022-12-28T21:26:41.404Z,7.50
2022-12-28T21:29:09.596Z,7.50
2022-12-28T21:31:37.695Z,7.50
2022-12-28T21:34:05.749Z,7.60
2022-12-28T21:36:33.825Z,7.60
2022-12-28T21:39:01.857Z,7.60
2022-12-28T21:41:47.477Z,7.60
2022-12-28T21:44:19.876Z,7.60
2022-12-28T21:46:49.824Z,7.60
2022-12-28T21:49:17.910Z,7.50
2022-12-28T21:51:46.000Z,7.50
2022-12-28T21:54:16.143Z,7.60
2022-12-28T21:56:45.846Z,7.60
2022-12-28T21:59:16.097Z,7.70
2022-12-28T22:02:02.055Z,7.80
2022-12-28T22:04:47.952Z,7.70
2022-12-28T22:07:19.071Z,7.70
2022-12-28T22:10:05.175Z,7.70
2022-12-28T22:12:37.194Z,7.70
2022-12-28T22:15:27.597Z,7.70
2022-12-28T22:17:56.714Z,7.70
2022-12-28T22:20:25.753Z,7.70
2022-12-28T22:22:56.450Z,7.70
2022-12-28T22:25:25.455Z,7.80
2022-12-28T22:27:53.645Z,7.80
2022-12-28T22:30:23.455Z,7.90
2022-12-28T22:32:51.595Z,7.90
2022-12-28T22:35:19.910Z,7.90
2022-12-28T22:37:47.954Z,7.90
2022-12-28T22:40:16.078Z,7.90
2022-12-28T22:42:45.329Z,7.90
2022-12-28T22:45:15.111Z,7.90
2022-12-28T22:47:46.329Z,8.00
2022-12-28T22:50:16.705Z,8.00
2022-12-28T22:52:47.875Z,8.00
2022-12-28T22:55:15.952Z,8.10
2022-12-28T22:57:44.097Z,8.10
2022-12-28T23:00:19.063Z,8.10
2022-12-28T23:02:48.619Z,8.10
2022-12-28T23:05:17.067Z,8.10
2022-12-28T23:07:45.163Z,8.20
2022-12-28T23:10:13.227Z,8.40
2022-12-28T23:12:41.433Z,8.40
2022-12-28T23:15:18.559Z,8.40
2022-12-28T23:17:49.458Z,8.30
2022-12-28T23:20:35.768Z,8.40
2022-12-28T23:23:21.197Z,8.40
2022-12-28T23:26:06.831Z,8.30
2022-12-28T23:28:36.918Z,8.30
2022-12-28T23:31:05.352Z,8.40
2022-12-28T23:33:36.690Z,8.40
2022-12-28T23:36:05.941Z,8.40
2022-12-28T23:38:34.410Z,8.40
2022-12-28T23:41:23.695Z,8.40
2022-12-28T23:43:51.765Z,8.40
2022-12-28T23:46:19.885Z,8.50
2022-12-28T23:48:49.786Z,8.40
2022-12-28T23:51:18.064Z,8.50
2022-12-28T23:53:46.320Z,8.40
2022-12-28T23:56:14.429Z,8.50
2022-12-28T23:58:42.475Z,8.50
